Time;durP1;ratioP1;P1;durP2;ratioP2;P2;SDS_P1;SDS_P2;PMS_P1;PMS_P2;Temp;Humidity;BMP_temperature;BMP_pressure;BME280_temperature;BME280_humidity;BME280_pressure;Samples;Min_cycle;Max_cycle;Signal;HPM_P1;HPM_P2
2021/03/23 00:00:16;;;;;;;24.77;15.57;;;7.80;41.30;;;;;;4970255;28;20396;-77
2021/03/23 00:02:54;;;;;;;24.85;16.52;;;7.80;41.60;;;;;;4968934;28;20393;-78
2021/03/23 00:05:19;;;;;;;22.02;15.60;;;7.70;42.60;;;;;;4970860;28;20399;-78
2021/03/23 00:07:45;;;;;;;23.60;15.60;;;7.80;43.50;;;;;;4973031;28;20396;-76
2021/03/23 00:10:12;;;;;;;26.35;16.08;;;7.70;42.60;;;;;;4968843;28;20523;-77
2021/03/23 00:12:38;;;;;;;24.70;16.58;;;7.60;43.60;;;;;;4974939;28;20400;-76
2021/03/23 00:15:07;;;;;;;23.50;16.02;;;7.60;43.70;;;;;;4984103;28;20512;-77
2021/03/23 00:17:33;;;;;;;22.35;15.80;;;7.40;45.00;;;;;;4991051;28;20406;-77
2021/03/23 00:19:58;;;;;;;23.70;16.53;;;7.30;46.40;;;;;;4998369;28;20389;-76
2021/03/23 00:22:24;;;;;;;24.90;15.97;;;7.40;45.70;;;;;;4996363;28;20398;-76
2021/03/23 00:24:49;;;;;;;21.10;15.47;;;7.50;43.10;;;;;;4989282;28;20469;-76
2021/03/23 00:27:15;;;;;;;21.10;15.60;;;7.40;43.50;;;;;;4989839;28;20733;-76
2021/03/23 00:29:43;;;;;;;23.43;16.03;;;7.40;43.60;;;;;;4989551;28;20417;-76
2021/03/23 00:32:09;;;;;;;28.17;16.98;;;7.40;44.50;;;;;;4989324;28;20383;-76
2021/03/23 00:34:35;;;;;;;23.33;16.10;;;7.40;45.60;;;;;;4989869;28;20961;-76
2021/03/23 00:37:02;;;;;;;22.10;15.70;;;7.40;42.40;;;;;;4970742;28;20491;-76
2021/03/23 00:39:27;;;;;;;19.85;15.10;;;7.60;39.60;;;;;;4971768;28;20499;-75
2021/03/23 00:41:53;;;;;;;21.63;16.30;;;7.70;38.50;;;;;;4972280;28;20807;-75
2021/03/23 00:44:19;;;;;;;22.23;15.60;;;7.70;38.90;;;;;;4973300;28;20867;-76
2021/03/23 00:46:44;;;;;;;21.55;16.67;;;7.70;39.20;;;;;;4971812;28;20441;-76
2021/03/23 00:49:10;;;;;;;25.10;16.30;;;7.70;39.40;;;;;;4990952;28;20751;-76
2021/03/23 00:51:36;;;;;;;20.42;15.43;;;7.70;38.20;;;;;;4985583;28;20416;-76
2021/03/23 00:54:02;;;;;;;22.40;15.90;;;7.70;38.60;;;;;;4973875;28;20415;-76
2021/03/23 00:56:28;;;;;;;23.55;17.13;;;7.70;37.30;;;;;;4981462;28;20388;-76
2021/03/23 00:58:53;;;;;;;23.40;16.17;;;7.70;37.10;;;;;;4989371;28;20479;-75
2021/03/23 01:01:19;;;;;;;24.47;17.40;;;7.70;37.20;;;;;;4993050;28;20396;-76
2021/03/23 01:03:45;;;;;;;24.03;16.30;;;7.70;37.80;;;;;;4993657;28;20407;-76
2021/03/23 01:06:11;;;;;;;23.27;17.30;;;7.70;38.80;;;;;;4980705;28;20426;-77
2021/03/23 01:08:36;;;;;;;24.85;17.67;;;7.70;39.10;;;;;;4971608;28;20765;-76
2021/03/23 01:11:03;;;;;;;26.80;17.30;;;7.60;39.80;;;;;;4974114;28;20396;-76
2021/03/23 01:13:28;;;;;;;28.85;18.00;;;7.60;40.70;;;;;;5010219;28;20411;-75
2021/03/23 01:15:54;;;;;;;26.63;17.67;;;7.40;42.80;;;;;;5011322;28;20472;-75
2021/03/23 01:18:19;;;;;;;31.90;18.00;;;7.40;43.10;;;;;;5010025;28;20460;-75
2021/03/23 01:20:45;;;;;;;29.03;19.50;;;7.30;44.40;;;;;;5004216;28;20804;-76
2021/03/23 01:23:11;;;;;;;27.43;17.87;;;7.40;44.80;;;;;;4992509;28;20371;-75
2021/03/23 01:25:36;;;;;;;28.73;19.40;;;7.50;43.90;;;;;;4998037;28;20387;-75
2021/03/23 01:28:02;;;;;;;27.52;19.00;;;7.40;44.60;;;;;;5011902;28;20391;-75
2021/03/23 01:30:29;;;;;;;34.30;20.52;;;7.30;46.00;;;;;;5002367;28;20840;-76
2021/03/23 01:32:55;;;;;;;32.17;20.58;;;7.30;47.00;;;;;;5002302;28;20486;-75
2021/03/23 01:35:24;;;;;;;32.35;20.50;;;7.30;46.30;;;;;;4992564;28;20397;-76
2021/03/23 01:37:50;;;;;;;36.33;20.80;;;7.40;45.60;;;;;;4989697;28;20412;-75
2021/03/23 01:40:18;;;;;;;30.05;19.08;;;7.30;46.30;;;;;;4985055;28;20453;-74
2021/03/23 01:42:48;;;;;;;31.30;19.85;;;7.40;45.80;;;;;;4984065;28;20438;-75
2021/03/23 01:45:40;;;;;;;33.22;20.98;;;7.40;46.10;;;;;;4972262;28;20529;-77
2021/03/23 01:48:25;;;;;;;29.40;20.63;;;7.40;45.70;;;;;;4983456;28;20398;-75
2021/03/23 01:50:57;;;;;;;35.90;20.48;;;7.30;46.00;;;;;;4975435;28;20399;-75
2021/03/23 01:53:41;;;;;;;32.13;21.70;;;7.30;45.90;;;;;;4971378;28;20909;-76
2021/03/23 01:56:08;;;;;;;32.30;20.25;;;7.30;46.50;;;;;;4971798;28;20390;-75
2021/03/23 01:58:38;;;;;;;32.60;21.38;;;7.40;45.20;;;;;;4971584;28;20909;-76
2021/03/23 02:01:07;;;;;;;32.63;21.33;;;7.50;45.00;;;;;;4971458;28;20385;-76
2021/03/23 02:03:33;;;;;;;37.90;21.55;;;7.40;44.80;;;;;;4971720;28;20734;-77
2021/03/23 02:06:00;;;;;;;36.43;22.30;;;7.40;45.40;;;;;;4971312;28;20408;-76
2021/03/23 02:08:27;;;;;;;37.80;22.80;;;7.30;47.00;;;;;;4971465;28;20393;-75
2021/03/23 02:10:55;;;;;;;35.33;23.20;;;7.30;47.70;;;;;;4972419;28;20395;-75
2021/03/23 02:13:21;;;;;;;35.55;21.80;;;7.30;47.40;;;;;;5011406;28;20396;-75
2021/03/23 02:15:47;;;;;;;37.90;23.02;;;7.40;44.00;;;;;;5010638;28;20397;-76
2021/03/23 02:18:21;;;;;;;39.28;22.73;;;7.40;46.10;;;;;;5007285;28;20421;-76
2021/03/23 02:21:12;;;;;;;39.47;21.25;;;7.40;44.80;;;;;;4996945;28;20458;-76
2021/03/23 02:23:57;;;;;;;39.55;22.50;;;7.40;44.00;;;;;;4978563;28;20445;-77
2021/03/23 02:26:31;;;;;;;35.15;20.75;;;7.40;44.40;;;;;;4976277;28;20396;-76
2021/03/23 02:29:01;;;;;;;35.15;21.40;;;7.40;42.80;;;;;;4975238;28;20462;-76
2021/03/23 02:31:31;;;;;;;35.05;20.30;;;7.20;44.00;;;;;;4973658;28;20875;-77
2021/03/23 02:33:58;;;;;;;37.50;20.92;;;7.20;45.30;;;;;;4970771;28;20435;-77
2021/03/23 02:36:25;;;;;;;37.27;22.23;;;7.00;45.40;;;;;;4972284;28;20400;-76
2021/03/23 02:38:51;;;;;;;33.78;21.27;;;7.00;47.00;;;;;;4971428;28;20412;-77
2021/03/23 02:41:17;;;;;;;35.80;21.10;;;7.20;45.40;;;;;;4975930;28;20452;-76
2021/03/23 02:43:43;;;;;;;32.28;20.48;;;7.40;43.80;;;;;;4982586;28;20399;-76
2021/03/23 02:46:09;;;;;;;38.35;20.67;;;7.50;43.10;;;;;;4983834;28;20894;-76
2021/03/23 02:48:34;;;;;;;35.55;20.58;;;7.50;41.20;;;;;;4981150;28;20920;-75
2021/03/23 02:51:00;;;;;;;38.15;20.50;;;7.70;41.30;;;;;;4990299;28;20436;-75
2021/03/23 02:53:27;;;;;;;32.07;20.43;;;7.60;40.80;;;;;;4990352;28;20391;-75
2021/03/23 02:55:52;;;;;;;34.38;19.55;;;7.70;39.40;;;;;;4990102;28;20383;-75
2021/03/23 02:58:18;;;;;;;30.60;20.20;;;7.70;39.20;;;;;;4989846;28;20452;-76
2021/03/23 03:00:44;;;;;;;31.73;20.73;;;7.60;39.80;;;;;;4989997;28;20909;-76
2021/03/23 03:03:10;;;;;;;32.45;19.48;;;7.40;41.20;;;;;;4986761;28;20406;-75
2021/03/23 03:05:36;;;;;;;31.00;20.20;;;7.40;41.50;;;;;;4990340;28;20413;-76
2021/03/23 03:08:02;;;;;;;35.60;20.38;;;7.40;40.80;;;;;;4989936;28;20477;-76
2021/03/23 03:10:27;;;;;;;37.25;20.02;;;7.60;40.60;;;;;;4989988;28;20429;-76
2021/03/23 03:12:54;;;;;;;33.10;20.47;;;7.40;41.40;;;;;;5005557;28;20429;-75
2021/03/23 03:15:19;;;;;;;34.28;20.60;;;7.40;40.60;;;;;;5009404;28;20385;-76
2021/03/23 03:17:45;;;;;;;31.63;20.53;;;7.40;41.20;;;;;;4992326;28;20610;-75
2021/03/23 03:20:13;;;;;;;33.87;19.83;;;7.50;40.10;;;;;;4996698;28;20379;-75
2021/03/23 03:22:38;;;;;;;36.43;20.27;;;7.40;41.60;;;;;;5009275;28;20743;-76
2021/03/23 03:25:06;;;;;;;29.85;19.27;;;7.50;40.40;;;;;;5009193;28;20381;-76
2021/03/23 03:27:31;;;;;;;36.50;21.42;;;7.50;40.60;;;;;;5009562;28;20385;-76
2021/03/23 03:29:57;;;;;;;40.08;21.02;;;7.20;41.50;;;;;;5009120;28;20393;-75
2021/03/23 03:32:22;;;;;;;35.40;21.00;;;7.20;42.50;;;;;;4974733;28;20408;-75
2021/03/23 03:34:48;;;;;;;40.22;23.35;;;7.20;43.60;;;;;;4969083;28;20451;-75
2021/03/23 03:37:14;;;;;;;37.35;21.05;;;7.10;44.20;;;;;;4970229;28;20396;-76
2021/03/23 03:39:40;;;;;;;45.05;23.70;;;7.10;45.00;;;;;;4970147;28;20415;-75
2021/03/23 03:42:06;;;;;;;36.58;20.73;;;7.10;44.40;;;;;;4970695;28;20389;-76
2021/03/23 03:44:32;;;;;;;38.83;22.90;;;7.20;45.40;;;;;;4974394;28;20381;-75
2021/03/23 03:46:57;;;;;;;41.65;22.65;;;7.20;45.30;;;;;;4993028;28;20755;-75
2021/03/23 03:49:23;;;;;;;44.70;23.10;;;7.20;45.00;;;;;;4984831;28;20427;-76
2021/03/23 03:51:48;;;;;;;36.42;21.83;;;7.10;44.70;;;;;;5006412;28;20395;-76
2021/03/23 03:54:14;;;;;;;38.22;21.95;;;7.10;45.00;;;;;;4991637;28;20787;-75
2021/03/23 03:56:40;;;;;;;36.25;21.05;;;7.10;45.70;;;;;;4989663;28;20805;-76
2021/03/23 03:59:05;;;;;;;38.95;21.90;;;7.10;45.20;;;;;;4987964;28;20556;-75
2021/03/23 04:01:31;;;;;;;45.00;24.52;;;7.10;44.80;;;;;;4989059;28;20887;-76
2021/03/23 04:03:56;;;;;;;37.50;22.88;;;7.10;45.40;;;;;;4989989;28;20390;-76
2021/03/23 04:06:22;;;;;;;41.30;23.13;;;7.20;45.90;;;;;;4989665;28;20399;-76
2021/03/23 04:08:47;;;;;;;42.55;23.52;;;7.20;44.80;;;;;;4988795;28;20903;-76
2021/03/23 04:11:13;;;;;;;46.93;23.53;;;7.10;45.30;;;;;;4991316;28;20882;-76
2021/03/23 04:13:39;;;;;;;41.27;23.30;;;7.10;46.60;;;;;;5005848;28;20395;-76
2021/03/23 04:16:05;;;;;;;37.90;23.13;;;7.20;47.20;;;;;;4984681;28;20407;-75
2021/03/23 04:18:31;;;;;;;40.17;23.92;;;7.20;46.50;;;;;;4969683;28;20769;-75
2021/03/23 04:21:00;;;;;;;42.47;25.47;;;7.20;46.10;;;;;;4999502;28;20386;-75
2021/03/23 04:23:29;;;;;;;44.55;25.52;;;7.20;46.20;;;;;;5009250;28;20455;-75
2021/03/23 04:25:55;;;;;;;47.95;28.33;;;7.30;45.00;;;;;;5009539;28;20441;-76
2021/03/23 04:28:21;;;;;;;51.08;27.98;;;7.40;44.20;;;;;;5004454;28;20898;-76
2021/03/23 04:30:48;;;;;;;43.78;26.80;;;7.60;42.40;;;;;;4970430;28;20475;-75
2021/03/23 04:33:15;;;;;;;47.00;26.50;;;7.90;39.80;;;;;;4974542;28;20404;-76
2021/03/23 04:35:49;;;;;;;56.28;33.60;;;7.80;39.60;;;;;;4977404;28;20422;-76
2021/03/23 04:38:26;;;;;;;55.67;33.07;;;7.90;39.60;;;;;;4982049;28;20793;-77
2021/03/23 04:40:53;;;;;;;63.72;36.50;;;7.90;39.70;;;;;;4981932;28;20365;-77
2021/03/23 04:43:29;;;;;;;57.45;32.58;;;7.90;40.50;;;;;;4980500;28;20400;-76
2021/03/23 04:45:55;;;;;;;59.28;34.00;;;7.90;40.20;;;;;;4988158;28;20388;-76
2021/03/23 04:48:22;;;;;;;46.75;29.00;;;7.70;41.60;;;;;;4991503;28;20478;-77
2021/03/23 04:50:48;;;;;;;55.03;30.30;;;7.70;41.00;;;;;;4995413;28;20390;-76
2021/03/23 04:53:26;;;;;;;46.90;28.90;;;7.70;41.80;;;;;;5007386;28;20394;-75
2021/03/23 04:55:54;;;;;;;51.40;28.55;;;7.70;40.40;;;;;;4997234;28;20391;-74
2021/03/23 04:58:20;;;;;;;48.50;26.45;;;7.60;40.70;;;;;;4992509;28;20441;-76
2021/03/23 05:00:46;;;;;;;49.22;25.75;;;7.60;40.60;;;;;;4987665;28;20467;-76
2021/03/23 05:03:24;;;;;;;43.13;26.05;;;7.60;39.70;;;;;;4987605;28;20398;-76
2021/03/23 05:05:54;;;;;;;46.60;25.77;;;7.60;39.80;;;;;;4989700;28;20930;-76
2021/03/23 05:08:22;;;;;;;42.38;25.77;;;7.50;40.40;;;;;;4991289;28;20386;-76
2021/03/23 05:10:47;;;;;;;41.85;25.08;;;7.50;40.40;;;;;;4989385;28;20388;-76
2021/03/23 05:13:13;;;;;;;47.53;26.75;;;7.50;39.30;;;;;;4992921;28;20428;-76
2021/03/23 05:15:39;;;;;;;42.90;26.50;;;7.20;41.90;;;;;;4989398;28;20489;-76
2021/03/23 05:18:05;;;;;;;40.77;24.33;;;7.40;40.50;;;;;;4988744;28;20411;-76
2021/03/23 05:20:31;;;;;;;42.25;24.90;;;7.50;39.80;;;;;;5000086;28;20738;-75
2021/03/23 05:22:57;;;;;;;44.87;25.40;;;7.50;39.90;;;;;;5009469;28;20425;-76
2021/03/23 05:25:22;;;;;;;41.17;24.80;;;7.50;39.70;;;;;;5010892;28;20396;-75
2021/03/23 05:27:48;;;;;;;43.67;25.50;;;7.40;40.70;;;;;;4981222;28;20404;-76
2021/03/23 05:30:14;;;;;;;47.40;25.92;;;7.30;41.40;;;;;;4973843;28;20389;-76
2021/03/23 05:32:40;;;;;;;45.45;26.33;;;7.10;43.00;;;;;;4972995;28;20392;-76
2021/03/23 05:35:07;;;;;;;38.47;25.60;;;7.20;43.80;;;;;;4971857;28;20470;-76
2021/03/23 05:37:33;;;;;;;46.08;24.75;;;7.20;43.30;;;;;;4972889;28;20391;-75
2021/03/23 05:39:59;;;;;;;43.30;26.27;;;7.30;44.20;;;;;;4972162;28;20893;-75
2021/03/23 05:42:33;;;;;;;41.03;24.35;;;7.30;42.80;;;;;;4989464;28;20410;-75
2021/03/23 05:45:31;;;;;;;42.70;26.38;;;7.50;41.00;;;;;;4992854;28;20753;-77
2021/03/23 05:48:21;;;;;;;40.78;25.42;;;7.30;41.80;;;;;;4982778;28;20892;-75
2021/03/23 05:51:05;;;;;;;44.10;25.33;;;7.30;42.00;;;;;;4985101;28;20453;-76
2021/03/23 05:53:40;;;;;;;47.50;25.20;;;7.30;41.10;;;;;;4991615;28;20442;-76
2021/03/23 05:56:07;;;;;;;42.47;26.02;;;7.30;41.20;;;;;;4991189;28;20488;-75
2021/03/23 05:58:36;;;;;;;45.60;26.30;;;7.50;40.40;;;;;;4992724;28;20407;-76
2021/03/23 06:01:02;;;;;;;43.70;25.83;;;7.40;41.70;;;;;;4992434;28;20384;-77
2021/03/23 06:03:29;;;;;;;43.35;24.88;;;7.40;39.70;;;;;;4994033;28;20409;-76
2021/03/23 06:06:07;;;;;;;46.97;27.55;;;7.60;38.10;;;;;;4992520;28;20394;-73
2021/03/23 06:08:36;;;;;;;50.75;27.60;;;7.70;38.80;;;;;;4975103;28;20400;-77
2021/03/23 06:11:04;;;;;;;56.50;29.80;;;7.80;38.90;;;;;;4974136;28;20404;-76
2021/03/23 06:14:11;;;;;;;52.42;28.45;;;7.90;38.20;;;;;;5011361;28;20389;-77
2021/03/23 06:16:58;;;;;;;55.58;28.15;;;7.80;38.20;;;;;;5012716;28;20386;-78
2021/03/23 06:19:47;;;;;;;47.65;27.50;;;8.00;37.50;;;;;;5016027;28;20628;-78
2021/03/23 06:22:24;;;;;;;55.03;27.00;;;8.10;36.60;;;;;;4989518;28;20400;-78
2021/03/23 06:25:21;;;;;;;47.60;27.95;;;8.20;36.90;;;;;;4976762;28;20918;-77
2021/03/23 06:27:58;;;;;;;51.60;29.08;;;8.20;36.30;;;;;;4974895;28;20439;-78
2021/03/23 06:30:44;;;;;;;50.00;28.85;;;8.20;35.60;;;;;;4974268;28;20391;-77
2021/03/23 06:33:13;;;;;;;55.60;29.52;;;8.20;35.00;;;;;;4976431;28;20400;-78
2021/03/23 06:35:46;;;;;;;53.42;29.63;;;8.10;36.30;;;;;;4983930;28;20787;-77
2021/03/23 06:38:32;;;;;;;50.45;29.55;;;7.90;37.40;;;;;;5000154;28;20458;-76
2021/03/23 06:41:18;;;;;;;50.70;30.60;;;7.90;37.90;;;;;;4993234;28;20397;-76
2021/03/23 06:43:47;;;;;;;56.72;30.90;;;8.10;37.50;;;;;;4990858;28;20394;-75
2021/03/23 06:46:22;;;;;;;52.00;31.23;;;8.00;37.40;;;;;;4989815;28;20442;-76
2021/03/23 06:49:07;;;;;;;51.03;29.77;;;8.10;37.20;;;;;;4973850;28;20415;-75
2021/03/23 06:51:33;;;;;;;56.45;30.50;;;8.40;36.70;;;;;;4989411;28;20864;-74
2021/03/23 06:54:19;;;;;;;62.70;32.58;;;8.30;36.10;;;;;;4990584;28;20383;-74
2021/03/23 06:56:46;;;;;;;59.85;31.83;;;8.40;36.50;;;;;;4991506;28;20460;-78
2021/03/23 06:59:18;;;;;;;50.85;29.95;;;8.40;35.70;;;;;;4993448;28;20467;-77
2021/03/23 07:01:46;;;;;;;53.33;30.15;;;8.60;35.30;;;;;;5001933;28;20417;-77
2021/03/23 07:04:27;;;;;;;58.17;31.90;;;8.60;35.40;;;;;;4994662;28;20432;-77
2021/03/23 07:07:22;;;;;;;63.90;30.02;;;8.40;36.10;;;;;;4974045;28;20760;-77
2021/03/23 07:09:56;;;;;;;57.70;29.65;;;8.60;35.40;;;;;;4990058;28;20427;-78
2021/03/23 07:12:41;;;;;;;58.97;30.98;;;8.80;34.20;;;;;;4997382;28;20401;-76
2021/03/23 07:15:20;;;;;;;68.43;32.20;;;8.60;35.00;;;;;;5012966;28;20592;-76
2021/03/23 07:17:58;;;;;;;57.33;29.83;;;8.60;35.70;;;;;;5013571;28;20389;-76
2021/03/23 07:20:42;;;;;;;54.20;30.42;;;8.90;34.30;;;;;;5000065;28;20484;-77
2021/03/23 07:23:28;;;;;;;57.38;30.65;;;8.90;33.90;;;;;;5011729;28;20381;-76
2021/03/23 07:25:55;;;;;;;66.63;31.15;;;8.90;34.10;;;;;;5015316;28;20400;-76
2021/03/23 07:28:35;;;;;;;52.67;29.10;;;8.80;34.40;;;;;;5011898;28;20742;-76
2021/03/23 07:31:08;;;;;;;56.47;30.73;;;8.90;35.10;;;;;;5015208;28;20418;-76
2021/03/23 07:34:00;;;;;;;55.03;29.05;;;9.00;34.10;;;;;;5003964;28;20403;-77
2021/03/23 07:36:31;;;;;;;62.13;31.23;;;9.00;34.60;;;;;;4988573;28;20483;-78
2021/03/23 07:39:20;;;;;;;58.42;31.13;;;9.10;34.00;;;;;;4981531;28;20423;-77
2021/03/23 07:41:51;;;;;;;63.47;32.38;;;9.20;33.40;;;;;;4970316;28;20753;-76
2021/03/23 07:44:39;;;;;;;58.58;29.85;;;9.20;33.90;;;;;;4970116;28;20412;-76
2021/03/23 07:47:18;;;;;;;62.15;30.55;;;9.30;32.80;;;;;;4972146;28;20411;-77
2021/03/23 07:49:56;;;;;;;60.83;29.55;;;9.50;32.30;;;;;;4989024;28;20462;-76
2021/03/23 07:52:36;;;;;;;56.28;29.08;;;9.40;32.70;;;;;;4988918;28;20421;-76
2021/03/23 07:55:03;;;;;;;62.90;28.70;;;9.30;32.50;;;;;;4989953;28;20898;-76
2021/03/23 07:57:52;;;;;;;61.13;29.30;;;9.50;32.30;;;;;;4994323;28;20408;-76
2021/03/23 08:00:24;;;;;;;56.47;27.38;;;9.40;32.20;;;;;;4991379;28;20394;-76
2021/03/23 08:03:08;;;;;;;55.60;28.13;;;9.40;32.50;;;;;;4974044;28;20393;-77
2021/03/23 08:06:12;;;;;;;55.15;27.88;;;9.60;31.10;;;;;;4973925;28;20869;-75
2021/03/23 08:09:21;;;;;;;55.35;27.85;;;9.50;32.30;;;;;;4974596;28;20388;-76
2021/03/23 08:12:11;;;;;;;46.13;26.93;;;9.70;31.80;;;;;;4982092;28;20412;-79
2021/03/23 08:14:55;;;;;;;51.50;27.50;;;9.70;32.00;;;;;;5009423;28;20408;-77
2021/03/23 08:17:45;;;;;;;54.70;27.60;;;10.10;29.70;;;;;;4981846;28;20427;-78
2021/03/23 08:20:44;;;;;;;54.30;27.80;;;10.20;30.30;;;;;;4987540;28;20436;-77
2021/03/23 08:23:18;;;;;;;53.28;27.92;;;10.30;29.30;;;;;;5008459;28;20464;-76
2021/03/23 08:25:50;;;;;;;55.17;28.30;;;10.20;30.30;;;;;;4979843;28;20436;-77
2021/03/23 08:28:37;;;;;;;59.53;28.80;;;10.40;29.30;;;;;;4969452;28;20438;-78
2021/03/23 08:31:12;;;;;;;49.60;27.20;;;10.30;29.50;;;;;;4967755;28;20388;-76
2021/03/23 08:33:51;;;;;;;49.75;28.15;;;10.60;28.70;;;;;;4968198;28;20395;-77
2021/03/23 08:36:27;;;;;;;55.50;27.92;;;10.60;28.90;;;;;;4969257;28;20395;-77
2021/03/23 08:39:37;;;;;;;54.10;27.47;;;10.50;29.20;;;;;;4968749;28;20408;-77
2021/03/23 08:42:16;;;;;;;52.88;26.63;;;10.60;28.70;;;;;;4968691;28;20487;-77
2021/03/23 08:44:57;;;;;;;55.50;27.53;;;10.90;27.00;;;;;;4976676;28;20494;-77
2021/03/23 08:47:34;;;;;;;45.70;26.60;;;10.80;28.00;;;;;;4986674;28;20421;-76
2021/03/23 08:50:23;;;;;;;51.63;26.27;;;10.80;28.30;;;;;;4987757;28;20403;-76
2021/03/23 08:52:54;;;;;;;53.63;28.07;;;11.20;25.70;;;;;;4987926;28;20406;-77
2021/03/23 08:55:34;;;;;;;48.20;25.30;;;11.20;26.00;;;;;;4987374;28;20402;-77
2021/03/23 08:58:05;;;;;;;52.70;28.20;;;11.20;26.90;;;;;;4976870;28;20497;-76
2021/03/23 09:00:36;;;;;;;51.65;27.17;;;11.20;27.30;;;;;;4970505;28;20402;-76
2021/03/23 09:03:42;;;;;;;46.83;26.10;;;11.70;24.20;;;;;;4972533;28;20942;-77
2021/03/23 09:06:11;;;;;;;50.55;26.17;;;11.50;25.20;;;;;;4974528;28;20396;-77
2021/03/23 09:08:41;;;;;;;56.55;27.65;;;11.50;25.60;;;;;;4972481;28;20384;-77
2021/03/23 09:11:17;;;;;;;50.05;25.73;;;11.60;25.30;;;;;;4974796;28;20380;-77
2021/03/23 09:13:45;;;;;;;46.47;25.58;;;11.80;24.20;;;;;;5011660;28;20480;-77
2021/03/23 09:16:11;;;;;;;47.13;26.40;;;11.60;25.50;;;;;;4984391;28;20836;-77
2021/03/23 09:18:56;;;;;;;48.43;25.10;;;11.80;24.00;;;;;;4972412;28;20431;-77
2021/03/23 09:21:22;;;;;;;47.90;26.17;;;12.00;23.10;;;;;;4975099;28;20693;-77
2021/03/23 09:23:51;;;;;;;44.72;24.73;;;11.90;24.70;;;;;;4983469;28;20396;-76
2021/03/23 09:26:39;;;;;;;45.05;25.63;;;12.00;23.10;;;;;;4986479;28;20416;-77
2021/03/23 09:29:32;;;;;;;45.25;25.17;;;11.90;24.60;;;;;;4973237;28;20416;-77
2021/03/23 09:32:21;;;;;;;46.83;24.27;;;12.30;23.30;;;;;;4972197;28;20765;-77
2021/03/23 09:37:46;;;;;;;46.42;24.58;;;12.30;23.10;;;;;;4992439;28;20394;-77
2021/03/23 09:40:20;;;;;;;41.65;23.85;;;12.20;23.90;;;;;;4986093;28;20409;-77
2021/03/23 09:42:50;;;;;;;52.60;24.90;;;12.20;22.50;;;;;;4972234;28;20511;-77
2021/03/23 09:45:49;;;;;;;43.45;24.63;;;12.00;24.00;;;;;;4972030;28;20401;-77
2021/03/23 09:48:34;;;;;;;44.22;24.85;;;12.10;25.00;;;;;;4982057;28;20402;-77
2021/03/23 09:51:04;;;;;;;47.85;25.02;;;12.00;25.20;;;;;;4974716;28;20711;-79
2021/03/23 09:53:38;;;;;;;46.45;25.45;;;11.90;25.00;;;;;;4990324;28;20427;-77
2021/03/23 09:56:21;;;;;;;39.15;23.35;;;12.30;23.70;;;;;;4974468;28;20530;-77
2021/03/23 09:59:16;;;;;;;45.65;24.75;;;12.20;24.30;;;;;;4971710;28;20491;-77
2021/03/23 10:02:20;;;;;;;44.60;23.88;;;12.00;25.00;;;;;;4972626;28;20515;-78
2021/03/23 10:04:47;;;;;;;43.43;23.90;;;12.10;24.40;;;;;;4972218;28;20484;-78
2021/03/23 10:07:42;;;;;;;45.63;24.30;;;12.20;24.90;;;;;;4972067;28;20753;-77
2021/03/23 10:10:11;;;;;;;45.90;23.20;;;12.30;23.90;;;;;;4991109;28;20799;-77
2021/03/23 10:12:36;;;;;;;39.58;22.17;;;12.20;24.20;;;;;;4991017;28;20391;-78
2021/03/23 10:15:18;;;;;;;42.20;22.73;;;12.10;24.00;;;;;;4990922;28;20906;-78
2021/03/23 10:17:45;;;;;;;43.97;23.55;;;11.90;25.50;;;;;;4990258;28;20398;-78
2021/03/23 10:20:16;;;;;;;44.73;22.43;;;11.90;25.60;;;;;;4978746;28;20400;-78
2021/03/23 10:22:52;;;;;;;42.50;22.88;;;12.20;24.20;;;;;;4972163;28;20403;-78
2021/03/23 10:25:20;;;;;;;44.17;23.02;;;12.00;25.40;;;;;;4974104;28;20404;-78
2021/03/23 10:27:46;;;;;;;39.15;22.25;;;12.20;24.70;;;;;;4973923;28;20392;-78
2021/03/23 10:30:36;;;;;;;45.53;22.75;;;12.40;23.70;;;;;;4973337;28;20428;-78
2021/03/23 10:33:29;;;;;;;41.53;22.73;;;12.20;25.10;;;;;;4981763;23;20434;-82
2021/03/23 10:35:58;;;;;;;37.08;22.08;;;12.00;25.30;;;;;;4963728;28;20446;-81
2021/03/23 10:38:26;;;;;;;45.17;23.73;;;11.90;25.20;;;;;;4966505;29;20438;-82
2021/03/23 10:40:54;;;;;;;44.45;24.00;;;11.80;25.10;;;;;;4972803;29;20387;-82
2021/03/23 10:43:37;;;;;;;43.05;22.60;;;11.80;26.10;;;;;;4969082;28;20925;-80
2021/03/23 10:46:25;;;;;;;38.50;21.63;;;11.90;26.60;;;;;;4963776;28;20402;-79
2021/03/23 10:48:51;;;;;;;43.80;21.85;;;11.90;24.80;;;;;;4973423;28;20394;-82
2021/03/23 10:51:20;;;;;;;40.45;23.10;;;11.50;26.40;;;;;;4973799;28;20382;-78
2021/03/23 10:54:10;;;;;;;44.00;23.13;;;11.50;27.70;;;;;;4974885;28;20444;-81
2021/03/23 10:56:47;;;;;;;47.13;22.90;;;11.60;26.70;;;;;;4973360;28;20452;-81
2021/03/23 10:59:21;;;;;;;39.63;20.98;;;11.80;26.40;;;;;;4974252;28;20463;-81
2021/03/23 11:02:05;;;;;;;41.95;22.23;;;11.90;25.70;;;;;;4973200;28;20414;-82
2021/03/23 11:04:33;;;;;;;46.78;23.08;;;12.00;26.40;;;;;;4965300;29;20400;-79
2021/03/23 11:07:20;;;;;;;41.40;22.83;;;12.00;24.80;;;;;;4973885;28;20409;-81
2021/03/23 11:09:45;;;;;;;37.28;23.00;;;11.90;24.70;;;;;;4973826;28;20378;-78
2021/03/23 11:12:11;;;;;;;41.67;24.13;;;12.00;25.30;;;;;;5015146;28;20386;-81
2021/03/23 11:14:37;;;;;;;41.13;23.20;;;12.10;25.10;;;;;;4990847;28;20382;-81
2021/03/23 11:17:04;;;;;;;39.33;24.10;;;12.40;24.00;;;;;;4967083;28;20456;-80
2021/03/23 11:19:36;;;;;;;43.22;23.80;;;12.50;23.60;;;;;;4971697;28;20489;-79
2021/03/23 11:22:05;;;;;;;40.47;22.70;;;12.90;23.70;;;;;;4971551;28;20428;-79
2021/03/23 11:24:34;;;;;;;40.72;23.85;;;13.30;21.80;;;;;;4971364;28;20469;-79
2021/03/23 11:27:00;;;;;;;40.63;23.83;;;13.60;20.20;;;;;;4971482;28;20417;-81
2021/03/23 11:29:27;;;;;;;43.35;23.75;;;13.90;19.40;;;;;;4972003;28;20445;-78
2021/03/23 11:31:53;;;;;;;37.35;23.00;;;14.00;18.70;;;;;;4969978;28;20429;-79
2021/03/23 11:34:18;;;;;;;39.72;22.30;;;13.80;19.20;;;;;;4968813;29;20409;-78
2021/03/23 11:36:44;;;;;;;42.92;23.35;;;13.70;19.90;;;;;;4978474;28;20930;-79
2021/03/23 11:39:10;;;;;;;41.50;24.13;;;14.30;17.80;;;;;;4966819;28;20418;-78
2021/03/23 11:41:47;;;;;;;43.22;23.85;;;14.30;17.60;;;;;;4966607;28;20402;-78
2021/03/23 11:44:25;;;;;;;45.38;25.80;;;14.50;17.00;;;;;;4963589;28;20390;-78
2021/03/23 11:46:57;;;;;;;42.90;24.55;;;14.50;17.70;;;;;;4959100;28;20461;-80
2021/03/23 11:49:34;;;;;;;43.42;23.40;;;14.60;17.50;;;;;;4945045;29;20413;-78
2021/03/23 11:52:00;;;;;;;39.08;23.17;;;14.80;16.00;;;;;;4960489;28;20417;-81
2021/03/23 11:54:26;;;;;;;39.80;23.87;;;14.30;17.60;;;;;;4962714;28;20409;-79
2021/03/23 11:56:53;;;;;;;41.03;23.85;;;14.20;17.90;;;;;;4963372;28;20563;-79
2021/03/23 11:59:19;;;;;;;40.90;24.90;;;14.10;17.90;;;;;;4966075;28;20741;-78
2021/03/23 12:01:45;;;;;;;39.42;24.25;;;14.10;17.80;;;;;;4964829;28;20386;-75
2021/03/23 12:04:11;;;;;;;40.42;24.88;;;14.20;18.10;;;;;;4961912;28;20394;-74
2021/03/23 12:06:54;;;;;;;39.93;23.60;;;14.30;17.60;;;;;;4958346;28;20488;-76
2021/03/23 12:09:28;;;;;;;35.45;23.55;;;14.10;18.10;;;;;;4955318;28;20406;-75
2021/03/23 12:11:54;;;;;;;42.40;24.67;;;14.50;18.00;;;;;;4986381;28;20415;-76
2021/03/23 12:14:25;;;;;;;42.85;25.02;;;14.60;17.00;;;;;;5033921;28;20406;-77
2021/03/23 12:17:07;;;;;;;39.50;23.92;;;14.60;17.00;;;;;;5036317;28;20871;-77
2021/03/23 12:19:39;;;;;;;39.95;24.33;;;15.20;15.70;;;;;;5022851;28;20415;-76
2021/03/23 12:22:05;;;;;;;41.78;24.95;;;15.30;15.20;;;;;;4977249;28;20389;-75
2021/03/23 12:24:31;;;;;;;37.63;23.90;;;14.90;15.70;;;;;;4958935;28;20747;-76
2021/03/23 12:26:57;;;;;;;41.57;24.57;;;14.80;15.80;;;;;;4956133;28;20493;-76
2021/03/23 12:29:23;;;;;;;42.60;24.60;;;14.70;16.40;;;;;;4953274;28;20418;-75
2021/03/23 12:31:49;;;;;;;38.33;23.17;;;14.60;16.80;;;;;;4954300;28;20412;-75
2021/03/23 12:34:16;;;;;;;37.40;23.25;;;14.90;16.00;;;;;;4955826;28;20436;-76
2021/03/23 12:36:43;;;;;;;39.33;25.02;;;14.80;15.90;;;;;;4955593;28;20429;-75
2021/03/23 12:39:10;;;;;;;37.45;23.38;;;14.70;16.20;;;;;;4956129;28;20448;-76
2021/03/23 12:41:37;;;;;;;44.43;25.63;;;14.60;16.60;;;;;;4968213;28;20391;-76
2021/03/23 12:44:04;;;;;;;41.23;25.07;;;14.70;17.10;;;;;;4964736;28;20394;-76
2021/03/23 12:46:31;;;;;;;40.10;23.40;;;14.60;16.70;;;;;;4956209;28;20400;-74
2021/03/23 12:48:57;;;;;;;36.80;22.90;;;14.40;17.30;;;;;;4956762;28;20426;-75
2021/03/23 12:51:50;;;;;;;41.67;23.08;;;14.60;17.20;;;;;;4956550;28;20394;-75
2021/03/23 12:54:38;;;;;;;39.67;23.40;;;14.50;17.00;;;;;;5036817;28;20406;-75
2021/03/23 12:57:15;;;;;;;34.35;21.85;;;14.10;18.20;;;;;;5035073;28;20395;-75
2021/03/23 12:59:41;;;;;;;38.83;21.60;;;13.90;18.50;;;;;;5036974;28;20411;-75
2021/03/23 13:02:07;;;;;;;43.50;22.73;;;14.00;18.60;;;;;;4958617;28;20809;-78